createdAt,value
2019-01-16T00:00:08.162Z,11.10
2019-01-16T00:01:07.931Z,10.60
2019-01-16T00:02:07.930Z,11.10
2019-01-16T00:03:07.924Z,10.00
2019-01-16T00:04:07.916Z,9.90
2019-01-16T00:05:07.913Z,9.90
2019-01-16T00:06:07.923Z,10.10
2019-01-16T00:07:07.903Z,9.70
2019-01-16T00:08:07.908Z,9.60
2019-01-16T00:09:07.903Z,10.20
2019-01-16T00:10:07.893Z,11.20
2019-01-16T00:11:07.889Z,10.50
2019-01-16T00:12:07.902Z,10.40
2019-01-16T00:13:07.900Z,10.50
2019-01-16T00:14:07.891Z,12.40
2019-01-16T00:15:07.914Z,11.40
2019-01-16T00:16:07.882Z,10.60
2019-01-16T00:17:07.865Z,10.70
2019-01-16T00:18:07.873Z,10.70
2019-01-16T00:19:08.061Z,11.10
2019-01-16T00:20:07.847Z,11.40
2019-01-16T00:21:07.859Z,12.40
2019-01-16T00:22:07.847Z,12.80
2019-01-16T00:23:07.843Z,12.70
2019-01-16T00:24:08.052Z,11.80
2019-01-16T00:25:08.036Z,11.90
2019-01-16T00:26:07.822Z,11.50
2019-01-16T00:27:08.026Z,12.00
2019-01-16T00:28:07.811Z,12.20
2019-01-16T00:29:07.816Z,12.10
2019-01-16T00:30:07.813Z,12.20
2019-01-16T00:31:07.815Z,12.20
2019-01-16T00:32:07.819Z,11.70
2019-01-16T00:33:08.013Z,12.10
2019-01-16T00:34:07.786Z,11.40
2019-01-16T00:35:07.796Z,12.40
2019-01-16T00:36:07.800Z,11.80
2019-01-16T00:37:07.793Z,12.50
2019-01-16T00:38:07.780Z,13.10
2019-01-16T00:39:07.781Z,12.40
2019-01-16T00:40:07.769Z,12.50
2019-01-16T00:41:07.779Z,12.60
2019-01-16T00:42:07.755Z,12.90
2019-01-16T00:43:07.759Z,12.60
2019-01-16T00:44:07.980Z,13.10
2019-01-16T00:45:07.954Z,13.00
2019-01-16T00:46:07.746Z,12.70
2019-01-16T00:47:07.741Z,12.20
2019-01-16T00:48:07.732Z,11.90
2019-01-16T00:49:07.931Z,11.90
2019-01-16T00:50:07.724Z,12.30
2019-01-16T00:51:07.722Z,12.40
2019-01-16T00:52:07.717Z,12.50
2019-01-16T00:53:07.709Z,12.10
2019-01-16T00:54:07.731Z,12.70
2019-01-16T00:55:07.726Z,12.80
2019-01-16T00:56:07.708Z,12.30
2019-01-16T00:57:07.694Z,12.40
2019-01-16T00:58:07.694Z,12.40
2019-01-16T00:59:07.724Z,12.40
2019-01-16T01:00:07.929Z,13.10
2019-01-16T01:01:07.703Z,12.70
2019-01-16T01:02:07.689Z,12.30
2019-01-16T01:03:07.689Z,12.40
2019-01-16T01:04:07.665Z,11.80
2019-01-16T01:05:07.877Z,12.60
2019-01-16T01:06:07.676Z,13.60
2019-01-16T01:07:07.672Z,12.00
2019-01-16T01:08:07.672Z,12.90
2019-01-16T01:09:07.650Z,12.10
2019-01-16T01:10:07.649Z,12.10
2019-01-16T01:11:07.635Z,13.10
2019-01-16T01:12:07.839Z,12.50
2019-01-16T01:13:07.630Z,11.90
2019-01-16T01:14:07.634Z,12.40
2019-01-16T01:15:07.630Z,13.30
2019-01-16T01:16:07.631Z,12.20
2019-01-16T01:17:07.620Z,13.00
2019-01-16T01:18:07.611Z,12.20
2019-01-16T01:19:07.617Z,12.10
2019-01-16T01:20:07.608Z,12.50
2019-01-16T01:21:07.600Z,12.90
2019-01-16T01:22:07.608Z,12.90
2019-01-16T01:23:07.590Z,12.80
2019-01-16T01:24:07.786Z,12.40
2019-01-16T01:25:07.583Z,12.70
2019-01-16T01:26:07.574Z,12.30
2019-01-16T01:27:07.569Z,13.00
2019-01-16T01:28:07.569Z,12.10
2019-01-16T01:29:07.566Z,11.60
2019-01-16T01:30:07.560Z,12.40
2019-01-16T01:31:07.569Z,11.10
2019-01-16T01:32:07.556Z,11.60
2019-01-16T01:33:07.554Z,12.50
2019-01-16T01:34:07.546Z,11.30
2019-01-16T01:35:07.532Z,10.70
2019-01-16T01:36:07.549Z,11.90
2019-01-16T01:37:07.529Z,10.70
2019-01-16T01:38:07.550Z,11.20
2019-01-16T01:39:07.530Z,10.80
2019-01-16T01:40:07.528Z,11.40
2019-01-16T01:41:07.511Z,11.40
2019-01-16T01:42:07.505Z,11.50
2019-01-16T01:43:07.507Z,11.10
2019-01-16T01:44:07.503Z,11.60
2019-01-16T01:45:07.507Z,11.10
2019-01-16T01:46:07.691Z,12.00
2019-01-16T01:47:07.481Z,12.00
2019-01-16T01:48:07.479Z,10.80
2019-01-16T01:49:07.481Z,11.50
2019-01-16T01:50:07.501Z,14.50
2019-01-16T01:51:07.468Z,11.60
2019-01-16T01:52:07.470Z,11.80
2019-01-16T01:53:07.476Z,13.70
2019-01-16T01:54:07.465Z,12.10
2019-01-16T01:55:07.461Z,11.60
2019-01-16T01:56:07.443Z,11.50
2019-01-16T01:57:07.457Z,11.40
2019-01-16T01:58:07.441Z,12.00
2019-01-16T01:59:07.430Z,13.30
2019-01-16T02:00:07.441Z,12.40
2019-01-16T02:01:07.430Z,11.60
2019-01-16T02:02:07.425Z,12.00
2019-01-16T02:03:07.437Z,12.10
2019-01-16T02:04:07.414Z,11.60
2019-01-16T02:05:07.414Z,12.10
2019-01-16T02:06:07.418Z,12.10
2019-01-16T02:07:07.407Z,11.00
2019-01-16T02:08:07.603Z,11.70
2019-01-16T02:09:07.410Z,11.40
2019-01-16T02:10:07.405Z,11.00
2019-01-16T02:11:07.392Z,11.40
2019-01-16T02:12:07.395Z,11.80
2019-01-16T02:13:07.579Z,10.60
2019-01-16T02:14:07.382Z,10.90
2019-01-16T02:15:07.368Z,11.40
2019-01-16T02:16:07.375Z,10.30
2019-01-16T02:17:07.365Z,10.00
2019-01-16T02:18:07.575Z,10.50
2019-01-16T02:19:07.355Z,10.30
2019-01-16T02:20:07.343Z,11.10
2019-01-16T02:21:07.342Z,9.60
2019-01-16T02:22:07.335Z,10.50
2019-01-16T02:23:07.367Z,9.80
2019-01-16T02:24:07.331Z,10.30
2019-01-16T02:25:07.328Z,9.60
2019-01-16T02:26:07.330Z,12.50
2019-01-16T02:27:07.336Z,10.00
2019-01-16T02:28:07.343Z,10.20
2019-01-16T02:29:07.323Z,9.90
2019-01-16T02:30:07.517Z,9.70
2019-01-16T02:31:07.502Z,8.80
2019-01-16T02:32:07.312Z,9.50
2019-01-16T02:33:07.299Z,9.90
2019-01-16T02:34:07.289Z,10.10
2019-01-16T02:35:07.296Z,10.50
2019-01-16T02:36:07.292Z,9.50
2019-01-16T02:37:07.275Z,9.30
2019-01-16T02:38:07.285Z,11.70
2019-01-16T02:39:07.277Z,9.40
2019-01-16T02:40:07.283Z,9.20
2019-01-16T02:41:07.285Z,8.90
2019-01-16T02:42:07.457Z,9.30
2019-01-16T02:43:07.258Z,9.00
2019-01-16T02:44:07.295Z,8.10
2019-01-16T02:45:07.241Z,9.00
2019-01-16T02:46:07.436Z,8.70
2019-01-16T02:47:07.284Z,8.10
2019-01-16T02:48:07.230Z,8.60
2019-01-16T02:49:07.456Z,9.00
2019-01-16T02:50:07.238Z,8.60
2019-01-16T02:51:07.438Z,8.00
2019-01-16T02:52:07.212Z,8.30
2019-01-16T02:53:07.210Z,8.30
2019-01-16T02:54:07.200Z,7.50
2019-01-16T02:55:07.214Z,9.70
2019-01-16T02:56:07.212Z,8.00
2019-01-16T02:57:07.199Z,8.70
2019-01-16T02:58:07.190Z,7.90
2019-01-16T02:59:07.186Z,8.10
2019-01-16T03:00:07.181Z,7.90
2019-01-16T03:01:07.180Z,8.20
2019-01-16T03:02:07.184Z,7.90
2019-01-16T03:03:07.175Z,7.40
2019-01-16T03:04:07.173Z,7.40
2019-01-16T03:05:07.177Z,8.00
2019-01-16T03:06:07.154Z,7.30
2019-01-16T03:07:07.149Z,8.00
2019-01-16T03:08:07.169Z,6.90
2019-01-16T03:09:07.141Z,7.40
2019-01-16T03:10:07.146Z,8.60
2019-01-16T03:11:07.143Z,7.80
2019-01-16T03:12:07.125Z,7.60
2019-01-16T03:13:07.129Z,7.10
2019-01-16T03:14:07.126Z,7.10
2019-01-16T03:15:07.131Z,9.20
2019-01-16T03:16:07.139Z,8.10
2019-01-16T03:17:07.324Z,9.40
2019-01-16T03:18:07.333Z,9.40
2019-01-16T03:19:07.102Z,7.90
2019-01-16T03:20:07.097Z,8.90
2019-01-16T03:21:07.102Z,7.30
2019-01-16T03:22:07.094Z,7.40
2019-01-16T03:23:07.289Z,7.40
2019-01-16T03:24:07.079Z,7.70
2019-01-16T03:25:07.076Z,7.50
2019-01-16T03:26:07.080Z,7.00
2019-01-16T03:27:07.105Z,7.50
2019-01-16T03:28:07.075Z,8.40
2019-01-16T03:29:07.057Z,8.00
2019-01-16T03:30:07.075Z,7.40
2019-01-16T03:31:07.067Z,7.80
2019-01-16T03:32:07.061Z,7.70
2019-01-16T03:33:07.053Z,7.50
2019-01-16T03:34:07.057Z,7.90
2019-01-16T03:35:07.244Z,8.90
2019-01-16T03:36:07.228Z,7.70
2019-01-16T03:37:07.225Z,7.50
2019-01-16T03:38:07.032Z,8.40
2019-01-16T03:39:07.234Z,7.70
2019-01-16T03:40:07.031Z,7.40
2019-01-16T03:41:07.225Z,7.50
2019-01-16T03:42:07.019Z,8.40
2019-01-16T03:43:06.995Z,8.80
2019-01-16T03:44:07.008Z,9.80
2019-01-16T03:45:07.005Z,8.60
2019-01-16T03:46:07.007Z,7.90
2019-01-16T03:47:07.000Z,8.10
2019-01-16T03:48:06.993Z,7.50
2019-01-16T03:49:13.215Z,9.40
2019-01-16T03:50:06.988Z,8.00
2019-01-16T03:51:07.181Z,7.90
2019-01-16T03:52:07.218Z,8.80
2019-01-16T03:53:06.964Z,8.10
2019-01-16T03:54:06.957Z,10.30
2019-01-16T03:55:06.963Z,7.50
2019-01-16T03:56:06.961Z,8.00
2019-01-16T03:57:06.950Z,10.00
2019-01-16T03:58:07.151Z,8.60
2019-01-16T03:59:06.934Z,8.10
2019-01-16T04:00:06.936Z,8.20
2019-01-16T04:01:06.941Z,7.90
2019-01-16T04:02:06.919Z,8.10
2019-01-16T04:03:06.919Z,8.50
2019-01-16T04:04:06.915Z,8.00
2019-01-16T04:05:07.123Z,8.30
2019-01-16T04:06:07.117Z,8.10
2019-01-16T04:07:06.918Z,8.60
2019-01-16T04:08:06.911Z,9.10
2019-01-16T04:09:06.896Z,9.60
2019-01-16T04:10:06.882Z,8.30
2019-01-16T04:11:06.897Z,8.90
2019-01-16T04:12:06.887Z,8.50
2019-01-16T04:13:06.887Z,9.40
2019-01-16T04:14:06.872Z,8.40
2019-01-16T04:15:06.878Z,8.50
2019-01-16T04:16:06.873Z,8.80
2019-01-16T04:17:07.078Z,7.90
2019-01-16T04:18:06.858Z,7.90
2019-01-16T04:19:06.862Z,8.50
2019-01-16T04:20:06.856Z,7.70
2019-01-16T04:21:06.870Z,8.10
2019-01-16T04:22:07.049Z,7.80
2019-01-16T04:23:06.836Z,9.00
2019-01-16T04:24:06.841Z,7.90
2019-01-16T04:25:06.842Z,8.30
2019-01-16T04:26:06.836Z,8.30
2019-01-16T04:27:06.821Z,8.40
2019-01-16T04:28:06.825Z,9.10
2019-01-16T04:29:06.809Z,7.90
2019-01-16T04:30:06.819Z,9.00
2019-01-16T04:31:06.798Z,7.00
2019-01-16T04:32:06.794Z,7.90
2019-01-16T04:33:06.795Z,7.30
2019-01-16T04:34:06.795Z,9.10
2019-01-16T04:35:06.795Z,8.20
2019-01-16T04:36:06.785Z,7.60
2019-01-16T04:37:06.787Z,7.80
2019-01-16T04:38:06.776Z,7.20
2019-01-16T04:39:06.972Z,7.40
2019-01-16T04:40:06.777Z,7.70
2019-01-16T04:41:06.779Z,7.30
2019-01-16T04:42:06.753Z,7.00
2019-01-16T04:43:06.750Z,7.10
2019-01-16T04:44:06.960Z,7.80
2019-01-16T04:45:06.754Z,6.60
2019-01-16T04:46:06.769Z,7.30
2019-01-16T04:47:06.735Z,7.40
2019-01-16T04:48:06.736Z,7.70
2019-01-16T04:49:06.724Z,7.90
2019-01-16T04:50:06.733Z,6.90
2019-01-16T04:51:06.937Z,6.70
2019-01-16T04:52:06.712Z,7.30
2019-01-16T04:53:06.709Z,6.80
2019-01-16T04:54:06.731Z,7.00
2019-01-16T04:55:06.717Z,6.40
2019-01-16T04:56:06.700Z,6.50
2019-01-16T04:57:06.708Z,6.70
2019-01-16T04:58:06.722Z,6.90
2019-01-16T04:59:06.899Z,6.80
2019-01-16T05:00:06.890Z,6.80
2019-01-16T05:01:06.692Z,6.60
2019-01-16T05:02:06.882Z,7.50
2019-01-16T05:03:06.671Z,6.30
2019-01-16T05:04:06.892Z,8.20
2019-01-16T05:05:06.658Z,7.00
2019-01-16T05:06:06.860Z,6.40
2019-01-16T05:07:06.660Z,6.70
2019-01-16T05:08:06.665Z,7.50
2019-01-16T05:09:06.850Z,6.70
2019-01-16T05:10:06.669Z,6.80
2019-01-16T05:11:06.654Z,7.40
2019-01-16T05:12:06.643Z,6.60
2019-01-16T05:13:06.624Z,5.70
2019-01-16T05:14:06.630Z,5.80
2019-01-16T05:15:06.645Z,6.10
2019-01-16T05:16:06.618Z,6.20
2019-01-16T05:17:06.659Z,5.70
2019-01-16T05:18:06.646Z,6.10
2019-01-16T05:19:06.812Z,6.00
2019-01-16T05:20:06.622Z,6.00
2019-01-16T05:21:06.600Z,5.90
2019-01-16T05:22:06.599Z,5.70
2019-01-16T05:23:06.597Z,6.30
2019-01-16T05:24:06.804Z,6.20
2019-01-16T05:25:06.585Z,5.60
2019-01-16T05:26:06.574Z,5.80
2019-01-16T05:27:06.577Z,5.90
2019-01-16T05:28:06.568Z,5.50
2019-01-16T05:29:06.769Z,5.60
2019-01-16T05:30:06.566Z,6.20
2019-01-16T05:31:06.554Z,5.70
2019-01-16T05:32:06.552Z,6.20
2019-01-16T05:33:06.557Z,5.30
2019-01-16T05:34:06.541Z,5.90
2019-01-16T05:35:06.537Z,5.40
2019-01-16T05:36:06.543Z,5.00
2019-01-16T05:37:06.541Z,5.00
2019-01-16T05:38:06.523Z,5.80
2019-01-16T05:39:06.521Z,5.30
2019-01-16T05:40:06.513Z,5.60
2019-01-16T05:41:06.520Z,5.20
2019-01-16T05:42:06.532Z,5.10
2019-01-16T05:43:06.527Z,4.90
2019-01-16T05:44:06.501Z,4.80
2019-01-16T05:45:06.495Z,5.40
2019-01-16T05:46:06.498Z,6.20
2019-01-16T05:47:06.694Z,5.50
2019-01-16T05:48:06.690Z,5.00
2019-01-16T05:49:06.488Z,5.20
2019-01-16T05:50:06.683Z,5.70
2019-01-16T05:51:06.475Z,5.10
2019-01-16T05:52:06.477Z,4.90
2019-01-16T05:53:06.672Z,5.00
2019-01-16T05:54:06.464Z,5.20
2019-01-16T05:55:06.462Z,6.20
2019-01-16T05:56:06.449Z,5.40
2019-01-16T05:57:06.652Z,6.00
2019-01-16T05:58:06.447Z,4.70
2019-01-16T05:59:06.439Z,5.10
2019-01-16T06:00:06.449Z,4.80
2019-01-16T06:01:06.441Z,5.50
2019-01-16T06:02:06.627Z,5.10
2019-01-16T06:03:06.421Z,5.00
2019-01-16T06:04:06.414Z,6.00
2019-01-16T06:05:06.416Z,4.80
2019-01-16T06:06:06.427Z,4.90
2019-01-16T06:07:06.427Z,7.00
2019-01-16T06:08:06.405Z,5.30
2019-01-16T06:09:06.404Z,4.50
2019-01-16T06:10:06.402Z,5.00
2019-01-16T06:11:06.389Z,4.40
2019-01-16T06:12:06.404Z,4.80
2019-01-16T06:13:06.381Z,5.80
2019-01-16T06:14:06.379Z,6.80
2019-01-16T06:15:06.380Z,4.90
2019-01-16T06:16:06.378Z,4.80
2019-01-16T06:17:06.388Z,4.10
2019-01-16T06:18:06.373Z,5.30
2019-01-16T06:19:06.356Z,4.70
2019-01-16T06:20:06.359Z,4.50
2019-01-16T06:21:06.353Z,4.60
2019-01-16T06:22:06.343Z,5.30
2019-01-16T06:23:06.559Z,4.00
2019-01-16T06:24:06.340Z,4.70
2019-01-16T06:25:06.340Z,4.40
2019-01-16T06:26:06.349Z,4.20
2019-01-16T06:27:06.328Z,3.70
2019-01-16T06:28:06.330Z,4.20
2019-01-16T06:29:06.343Z,5.00
2019-01-16T06:30:06.316Z,5.00
2019-01-16T06:31:06.324Z,4.60
2019-01-16T06:32:06.514Z,4.80
2019-01-16T06:33:06.298Z,4.50
2019-01-16T06:34:06.300Z,4.50
2019-01-16T06:35:06.336Z,4.70
2019-01-16T06:36:06.494Z,4.30
2019-01-16T06:37:06.288Z,4.70
2019-01-16T06:38:06.291Z,4.00
2019-01-16T06:39:06.281Z,4.10
2019-01-16T06:40:06.272Z,4.50
2019-01-16T06:41:06.269Z,4.10
2019-01-16T06:42:06.265Z,4.30
2019-01-16T06:43:06.263Z,4.70
2019-01-16T06:44:06.258Z,4.20
2019-01-16T06:45:06.255Z,5.00
2019-01-16T06:46:06.244Z,5.00
2019-01-16T06:47:06.252Z,4.00
2019-01-16T06:48:06.237Z,5.60
2019-01-16T06:49:06.241Z,4.70
2019-01-16T06:50:06.237Z,4.00
2019-01-16T06:51:06.231Z,3.70
2019-01-16T06:52:06.223Z,4.50
2019-01-16T06:53:06.236Z,4.20
2019-01-16T06:54:06.225Z,3.90
2019-01-16T06:55:06.217Z,4.20
2019-01-16T06:56:06.211Z,4.40
2019-01-16T06:57:06.201Z,4.20
2019-01-16T06:58:06.196Z,4.00
2019-01-16T06:59:06.403Z,4.20
2019-01-16T07:00:06.197Z,4.00
2019-01-16T07:01:06.192Z,4.30
2019-01-16T07:02:06.386Z,4.60
2019-01-16T07:03:06.176Z,4.10
2019-01-16T07:04:06.172Z,4.30
2019-01-16T07:05:06.169Z,4.10
2019-01-16T07:06:06.385Z,5.10
2019-01-16T07:07:06.172Z,4.50
2019-01-16T07:08:06.155Z,4.40
2019-01-16T07:09:06.161Z,5.50
2019-01-16T07:10:06.154Z,4.20
2019-01-16T07:11:06.179Z,5.60
2019-01-16T07:12:06.152Z,4.30
2019-01-16T07:13:06.151Z,4.40
2019-01-16T07:14:06.146Z,4.20
2019-01-16T07:15:06.151Z,5.50
2019-01-16T07:16:06.329Z,4.50
2019-01-16T07:17:06.120Z,3.70
2019-01-16T07:18:06.117Z,4.30
2019-01-16T07:19:06.118Z,4.90
2019-01-16T07:20:09.856Z,5.20
2019-01-16T07:21:06.099Z,5.40
2019-01-16T07:22:06.205Z,4.90
2019-01-16T07:23:06.099Z,4.10
2019-01-16T07:24:06.109Z,4.20
2019-01-16T07:25:06.106Z,4.00
2019-01-16T07:26:06.087Z,5.70
2019-01-16T07:27:06.107Z,4.80
2019-01-16T07:28:06.080Z,3.80
2019-01-16T07:29:06.082Z,4.00
2019-01-16T07:30:06.065Z,4.70
2019-01-16T07:31:06.060Z,5.00
2019-01-16T07:32:06.059Z,5.60
2019-01-16T07:33:06.066Z,4.10
2019-01-16T07:34:06.052Z,3.70
2019-01-16T07:35:06.046Z,6.50
2019-01-16T07:36:06.054Z,3.80
2019-01-16T07:37:06.048Z,4.30
2019-01-16T07:38:06.035Z,5.00
2019-01-16T07:39:06.044Z,3.70
2019-01-16T07:40:06.250Z,3.80
2019-01-16T07:41:06.018Z,3.90
2019-01-16T07:42:06.016Z,3.90
2019-01-16T07:43:06.013Z,3.80
2019-01-16T07:44:06.011Z,5.90
2019-01-16T07:45:06.035Z,4.60
2019-01-16T07:46:06.209Z,5.60
2019-01-16T07:47:06.009Z,6.80
2019-01-16T07:48:06.007Z,3.70
2019-01-16T07:49:05.993Z,4.00
2019-01-16T07:50:06.188Z,4.50
2019-01-16T07:51:05.980Z,4.90
2019-01-16T07:52:06.198Z,3.80
2019-01-16T07:53:05.975Z,4.40
2019-01-16T07:54:05.982Z,5.00
2019-01-16T07:55:06.175Z,4.30
2019-01-16T07:56:05.959Z,3.80
2019-01-16T07:57:05.959Z,5.10
2019-01-16T07:58:05.950Z,3.80
2019-01-16T07:59:05.963Z,5.40
2019-01-16T08:00:05.955Z,3.90
2019-01-16T08:01:05.940Z,4.20
2019-01-16T08:02:06.151Z,3.60
2019-01-16T08:03:05.933Z,3.90
2019-01-16T08:04:05.930Z,3.60
2019-01-16T08:05:05.920Z,4.70
2019-01-16T08:06:05.923Z,3.80
2019-01-16T08:07:05.914Z,4.80
2019-01-16T08:08:05.919Z,3.90
2019-01-16T08:09:05.934Z,4.40
2019-01-16T08:10:05.904Z,5.70
2019-01-16T08:11:05.972Z,3.60
2019-01-16T08:12:05.892Z,3.40
2019-01-16T08:13:05.885Z,3.90
2019-01-16T08:14:05.889Z,3.70
2019-01-16T08:15:05.898Z,5.30
2019-01-16T08:16:05.887Z,5.10
2019-01-16T08:17:05.878Z,5.10
2019-01-16T08:18:06.080Z,4.00
2019-01-16T08:19:05.863Z,4.70
2019-01-16T08:20:05.857Z,4.20
2019-01-16T08:21:05.882Z,4.80
2019-01-16T08:22:05.849Z,4.20
2019-01-16T08:23:05.841Z,6.10
2019-01-16T08:24:06.046Z,4.40
2019-01-16T08:25:05.842Z,4.60
2019-01-16T08:26:05.862Z,5.10
2019-01-16T08:27:05.829Z,6.00
2019-01-16T08:28:06.041Z,4.60
2019-01-16T08:29:05.823Z,4.40
2019-01-16T08:30:05.818Z,6.10
2019-01-16T08:31:06.018Z,4.90
2019-01-16T08:32:05.806Z,5.10
2019-01-16T08:33:05.804Z,5.80
2019-01-16T08:34:05.799Z,5.50
2019-01-16T08:35:05.799Z,5.70
2019-01-16T08:36:05.802Z,5.70
2019-01-16T08:37:06.012Z,5.50
2019-01-16T08:38:05.793Z,6.10
2019-01-16T08:39:05.792Z,6.80
2019-01-16T08:40:05.803Z,5.70
2019-01-16T08:41:05.974Z,6.60
2019-01-16T08:42:05.763Z,6.70
2019-01-16T08:43:05.766Z,7.60
2019-01-16T08:44:13.315Z,6.50
2019-01-16T08:45:05.769Z,6.90
2019-01-16T08:46:05.748Z,7.80
2019-01-16T08:47:05.750Z,7.40
2019-01-16T08:48:05.743Z,8.90
2019-01-16T08:49:05.736Z,8.20
2019-01-16T08:50:05.725Z,7.80
2019-01-16T08:51:05.742Z,8.10
2019-01-16T08:52:05.924Z,8.90
2019-01-16T08:53:05.718Z,9.60
2019-01-16T08:54:05.716Z,10.60
2019-01-16T08:55:05.704Z,9.60
2019-01-16T08:56:05.703Z,8.80
2019-01-16T08:57:05.712Z,9.60
2019-01-16T08:58:05.702Z,10.10
2019-01-16T08:59:05.698Z,10.60
2019-01-16T09:00:05.688Z,10.20
2019-01-16T09:01:05.700Z,10.00
2019-01-16T09:02:05.676Z,10.60
2019-01-16T09:03:05.685Z,10.80
2019-01-16T09:04:05.672Z,10.80
2019-01-16T09:05:05.682Z,10.80
2019-01-16T09:06:05.659Z,10.70
2019-01-16T09:07:05.682Z,12.10
2019-01-16T09:08:05.670Z,11.50
2019-01-16T09:09:05.649Z,11.50
2019-01-16T09:10:05.661Z,12.40
2019-01-16T09:11:05.656Z,12.30
2019-01-16T09:12:05.630Z,12.60
2019-01-16T09:13:05.709Z,13.40
2019-01-16T09:14:05.625Z,12.70
2019-01-16T09:15:05.621Z,13.70
2019-01-16T09:16:05.815Z,13.10
2019-01-16T09:17:05.613Z,13.20
2019-01-16T09:18:05.830Z,13.40
2019-01-16T09:19:05.600Z,13.10
2019-01-16T09:20:05.601Z,12.80
2019-01-16T09:21:05.609Z,13.20
2019-01-16T09:22:05.599Z,13.90
2019-01-16T09:23:05.799Z,13.40
2019-01-16T09:24:05.593Z,13.40
2019-01-16T09:25:05.577Z,13.50
2019-01-16T09:26:05.571Z,14.50
2019-01-16T09:27:05.785Z,13.00
2019-01-16T09:28:05.576Z,13.90
2019-01-16T09:29:05.572Z,13.80
2019-01-16T09:30:05.754Z,15.30
2019-01-16T09:31:05.573Z,13.30
2019-01-16T09:32:05.751Z,14.90
2019-01-16T09:33:05.555Z,13.80
2019-01-16T09:34:05.745Z,15.10
2019-01-16T09:35:05.545Z,13.70
2019-01-16T09:36:05.539Z,14.40
2019-01-16T09:37:05.521Z,13.30
2019-01-16T09:38:05.535Z,14.40
2019-01-16T09:39:05.519Z,13.00
2019-01-16T09:40:05.535Z,14.10
2019-01-16T09:41:05.508Z,13.70
2019-01-16T09:42:05.515Z,13.50
2019-01-16T09:43:05.518Z,13.70
2019-01-16T09:44:05.504Z,13.50
2019-01-16T09:45:05.696Z,13.40
2019-01-16T09:46:05.517Z,13.40
2019-01-16T09:47:05.484Z,12.90
2019-01-16T09:48:05.503Z,13.30
2019-01-16T09:49:05.501Z,13.00
2019-01-16T09:50:05.484Z,12.50
2019-01-16T09:51:05.469Z,12.20
2019-01-16T09:52:05.480Z,12.00
2019-01-16T09:53:05.488Z,11.50
2019-01-16T09:54:05.653Z,11.00
2019-01-16T09:55:05.472Z,10.50
2019-01-16T09:56:05.472Z,10.70
2019-01-16T09:57:05.670Z,11.80
2019-01-16T09:58:05.433Z,10.30
2019-01-16T09:59:05.434Z,11.20
2019-01-16T10:00:05.423Z,8.00
2019-01-16T10:01:05.421Z,9.10
2019-01-16T10:02:05.617Z,8.50
2019-01-16T10:03:05.420Z,8.70
2019-01-16T10:04:05.409Z,8.80
2019-01-16T10:05:05.420Z,8.00
2019-01-16T10:06:05.605Z,7.70
2019-01-16T10:07:05.406Z,8.20
2019-01-16T10:08:05.600Z,8.30
2019-01-16T10:09:05.387Z,8.70
2019-01-16T10:10:05.392Z,7.80
2019-01-16T10:11:05.384Z,8.00
2019-01-16T10:12:05.592Z,8.50
2019-01-16T10:13:05.388Z,8.10
2019-01-16T10:14:05.369Z,7.70
2019-01-16T10:15:05.379Z,7.70
2019-01-16T10:16:05.356Z,8.50
2019-01-16T10:17:05.354Z,8.30
2019-01-16T10:18:05.348Z,10.30
2019-01-16T10:19:05.547Z,8.10
2019-01-16T10:20:05.547Z,7.90
2019-01-16T10:21:05.354Z,9.10
2019-01-16T10:22:05.335Z,9.60
2019-01-16T10:23:05.321Z,7.90
2019-01-16T10:24:05.332Z,8.50
2019-01-16T10:25:05.526Z,8.70
2019-01-16T10:26:05.316Z,10.30
2019-01-16T10:27:05.322Z,9.20
2019-01-16T10:28:05.303Z,10.80
2019-01-16T10:29:05.300Z,9.70
2019-01-16T10:30:05.320Z,7.00
2019-01-16T10:31:05.308Z,7.90
2019-01-16T10:32:05.297Z,7.90
2019-01-16T10:33:05.283Z,8.80
2019-01-16T10:34:05.276Z,7.90
2019-01-16T10:35:05.273Z,7.20
2019-01-16T10:36:05.271Z,9.60
2019-01-16T10:37:05.272Z,7.40
2019-01-16T10:38:05.257Z,7.60
2019-01-16T10:39:05.264Z,7.30
2019-01-16T10:40:05.251Z,6.90
2019-01-16T10:41:05.459Z,7.60
2019-01-16T10:42:05.245Z,9.00
2019-01-16T10:43:05.241Z,8.10
2019-01-16T10:44:05.238Z,9.20
2019-01-16T10:45:05.227Z,9.00
2019-01-16T10:46:05.242Z,7.70
2019-01-16T10:47:05.425Z,7.40
2019-01-16T10:48:05.227Z,8.50
2019-01-16T10:49:05.214Z,10.20
2019-01-16T10:50:05.208Z,7.60
2019-01-16T10:51:05.220Z,7.30
2019-01-16T10:52:05.401Z,7.10
2019-01-16T10:53:05.204Z,9.20
2019-01-16T10:54:05.189Z,8.40
2019-01-16T10:55:05.193Z,8.20
2019-01-16T10:56:05.182Z,9.60
2019-01-16T10:57:05.188Z,6.30
2019-01-16T10:58:05.195Z,10.00
2019-01-16T10:59:05.203Z,8.00
2019-01-16T11:00:05.381Z,10.10
2019-01-16T11:01:05.364Z,10.60
2019-01-16T11:02:05.353Z,9.00
2019-01-16T11:03:05.166Z,8.90
2019-01-16T11:04:05.145Z,8.50
2019-01-16T11:05:05.135Z,7.90
2019-01-16T11:06:05.143Z,7.10
2019-01-16T11:07:05.150Z,8.20
2019-01-16T11:08:05.124Z,8.50
2019-01-16T11:09:05.124Z,8.70
2019-01-16T11:10:05.137Z,9.90
2019-01-16T11:11:06.692Z,8.80
2019-01-16T11:12:05.309Z,9.50
2019-01-16T11:13:05.117Z,7.30
2019-01-16T11:14:05.105Z,7.70
2019-01-16T11:15:05.094Z,9.70
2019-01-16T11:16:05.323Z,9.40
2019-01-16T11:17:05.103Z,7.40
2019-01-16T11:18:05.081Z,9.40
2019-01-16T11:19:05.091Z,9.60
2019-01-16T11:20:05.093Z,8.90
2019-01-16T11:21:10.973Z,9.90
2019-01-16T11:22:05.083Z,9.90
2019-01-16T11:23:05.064Z,11.00
2019-01-16T11:24:05.055Z,10.40
2019-01-16T11:25:05.063Z,8.50
2019-01-16T11:26:05.054Z,7.30
2019-01-16T11:27:05.043Z,10.60
2019-01-16T11:28:05.043Z,9.20
2019-01-16T11:29:05.039Z,10.40
2019-01-16T11:30:05.035Z,11.50
2019-01-16T11:31:05.027Z,9.60
2019-01-16T11:32:05.038Z,10.40
2019-01-16T11:33:05.016Z,9.70
2019-01-16T11:34:05.038Z,10.40
2019-01-16T11:35:05.013Z,8.10
2019-01-16T11:36:05.016Z,9.40
2019-01-16T11:37:05.228Z,9.10
2019-01-16T11:38:05.014Z,10.30
2019-01-16T11:39:05.201Z,9.50
2019-01-16T11:40:05.281Z,9.40
2019-01-16T11:41:04.987Z,10.50
2019-01-16T11:42:04.989Z,9.70
2019-01-16T11:43:04.982Z,9.40
2019-01-16T11:44:04.973Z,12.00
2019-01-16T11:45:05.179Z,12.30
2019-01-16T11:46:04.969Z,9.80
2019-01-16T11:47:04.975Z,11.80
2019-01-16T11:49:04.946Z,10.30
2019-01-16T11:50:04.962Z,11.60
2019-01-16T11:51:05.157Z,11.10
2019-01-16T11:52:04.939Z,10.20
2019-01-16T11:53:04.936Z,12.40
2019-01-16T11:54:04.928Z,12.80
2019-01-16T11:55:04.926Z,12.70
2019-01-16T11:56:04.937Z,11.50
2019-01-16T11:57:04.927Z,10.70
2019-01-16T11:58:04.926Z,11.90
2019-01-16T11:59:04.919Z,11.90
2019-01-16T12:00:04.933Z,13.10
2019-01-16T12:01:04.905Z,11.00
2019-01-16T12:02:04.893Z,12.30
2019-01-16T12:03:04.898Z,9.10
2019-01-16T12:04:04.885Z,10.60
2019-01-16T12:05:05.084Z,9.50
2019-01-16T12:06:05.081Z,8.50
2019-01-16T12:07:04.875Z,11.10
2019-01-16T12:08:04.870Z,12.90
2019-01-16T12:09:04.894Z,9.70
2019-01-16T12:10:04.873Z,11.30
2019-01-16T12:11:04.870Z,10.90
2019-01-16T12:12:04.871Z,10.40
2019-01-16T12:13:05.055Z,12.80
2019-01-16T12:14:04.849Z,10.50
2019-01-16T12:15:04.852Z,10.40
2019-01-16T12:16:04.846Z,12.40
2019-01-16T12:17:04.850Z,11.20
2019-01-16T12:18:05.029Z,9.50
2019-01-16T12:19:04.825Z,8.90
2019-01-16T12:20:04.813Z,7.90
2019-01-16T12:21:05.015Z,8.90
2019-01-16T12:22:04.821Z,10.10
2019-01-16T12:23:04.835Z,10.20
2019-01-16T12:24:04.832Z,10.00
2019-01-16T12:25:04.797Z,10.00
2019-01-16T12:26:08.299Z,11.00
2019-01-16T12:27:04.793Z,11.90
2019-01-16T12:28:04.783Z,8.40
2019-01-16T12:29:04.791Z,11.90
2019-01-16T12:30:04.787Z,11.20
2019-01-16T12:31:04.770Z,8.80
2019-01-16T12:32:04.770Z,10.30
2019-01-16T12:33:04.976Z,12.40
2019-01-16T12:34:04.762Z,12.50
2019-01-16T12:35:04.754Z,8.90
2019-01-16T12:36:04.753Z,11.50
2019-01-16T12:37:04.744Z,8.90
2019-01-16T12:38:04.737Z,9.00
2019-01-16T12:39:04.737Z,8.40
2019-01-16T12:40:06.353Z,9.20
2019-01-16T12:41:04.740Z,10.40
2019-01-16T12:42:04.929Z,11.70
2019-01-16T12:43:04.724Z,10.90
2019-01-16T12:44:04.734Z,9.30
2019-01-16T12:45:04.723Z,9.50
2019-01-16T12:46:04.711Z,9.40
2019-01-16T12:47:04.730Z,9.70
2019-01-16T12:48:04.711Z,9.70
2019-01-16T12:49:05.987Z,14.00
2019-01-16T12:50:04.710Z,8.60
2019-01-16T12:51:04.698Z,6.70
2019-01-16T12:52:04.696Z,11.00
2019-01-16T12:53:04.682Z,8.70
2019-01-16T12:54:04.678Z,10.00
2019-01-16T12:55:04.874Z,9.40
2019-01-16T12:56:04.675Z,11.60
2019-01-16T12:57:04.680Z,8.60
2019-01-16T12:58:04.862Z,9.40
2019-01-16T12:59:04.656Z,9.50
2019-01-16T13:00:04.664Z,10.30
2019-01-16T13:01:04.645Z,11.60
2019-01-16T13:02:04.637Z,9.90
2019-01-16T13:03:04.642Z,10.60
2019-01-16T13:04:04.630Z,9.80
2019-01-16T13:05:04.634Z,11.90
2019-01-16T13:06:04.833Z,10.20
2019-01-16T13:07:04.620Z,8.60
2019-01-16T13:08:04.613Z,8.80
2019-01-16T13:09:04.616Z,10.60
2019-01-16T13:10:04.621Z,9.80